<?xml version="1.0" encoding="UTF-8" standalone="no" ?>
<gpx xmlns="http://www.topografix.com/GPX/1/1" xmlns:xsi="http://www.w3.org/2001/XMLSchema-instance" xsi:schemaLocation="http://www.topografix.com/GPX/1/1 http://www.topografix.com/GPX/1/1/gpx.xsd" version="1.1" creator="VisuGPX - https://www.visugpx.com">
  <metadata>
    <name>bitume</name>
  </metadata>
  <wpt lat="47.2596" lon="0.10728">
    <ele>29.9</ele>
    <name><![CDATA[001]]></name>
  </wpt>
  <wpt lat="47.25414" lon="0.1054">
    <ele>26.5</ele>
    <name><![CDATA[002]]></name>
  </wpt>
  <wpt lat="47.25199" lon="0.10326">
    <ele>26.3</ele>
    <name><![CDATA[003]]></name>
  </wpt>
  <wpt lat="47.24589" lon="0.10318">
    <ele>28.2</ele>
    <name><![CDATA[004]]></name>
  </wpt>
  <wpt lat="47.24553" lon="0.1056">
    <ele>29.1</ele>
    <name><![CDATA[005]]></name>
  </wpt>
  <wpt lat="47.24299" lon="0.11058">
    <ele>29.7</ele>
    <name><![CDATA[006]]></name>
  </wpt>
  <wpt lat="47.23984" lon="0.11423">
    <ele>30.7</ele>
    <name><![CDATA[007]]></name>
  </wpt>
  <wpt lat="47.23897" lon="0.11935">
    <ele>30.8</ele>
    <name><![CDATA[008]]></name>
  </wpt>
  <wpt lat="47.23801" lon="0.1195">
    <ele>31.8</ele>
    <name><![CDATA[009]]></name>
  </wpt>
  <wpt lat="47.23695" lon="0.11949">
    <ele>32.5</ele>
    <name><![CDATA[010]]></name>
  </wpt>
  <wpt lat="47.23556" lon="0.11994">
    <ele>31.3</ele>
    <name><![CDATA[011]]></name>
  </wpt>
  <wpt lat="47.23506" lon="0.12036">
    <ele>33.8</ele>
    <name><![CDATA[012]]></name>
  </wpt>
  <wpt lat="47.23477" lon="0.12027">
    <ele>34.8</ele>
    <name><![CDATA[013]]></name>
  </wpt>
  <wpt lat="47.23415" lon="0.1204">
    <ele>36.1</ele>
    <name><![CDATA[014]]></name>
  </wpt>
  <wpt lat="47.23034" lon="0.11283">
    <ele>32.8</ele>
    <name><![CDATA[015]]></name>
  </wpt>
  <wpt lat="47.22618" lon="0.10428">
    <ele>32.6</ele>
    <name><![CDATA[016]]></name>
  </wpt>
  <wpt lat="47.22162" lon="0.09354">
    <ele>33.1</ele>
    <name><![CDATA[017]]></name>
  </wpt>
  <wpt lat="47.22213" lon="0.09217">
    <ele>31.9</ele>
    <name><![CDATA[018]]></name>
  </wpt>
  <wpt lat="47.22076" lon="0.08818">
    <ele>32.9</ele>
    <name><![CDATA[019]]></name>
  </wpt>
  <wpt lat="47.21715" lon="0.07607">
    <ele>32.7</ele>
    <name><![CDATA[020]]></name>
  </wpt>
  <wpt lat="47.21766" lon="0.07118">
    <ele>30.9</ele>
    <name><![CDATA[021]]></name>
  </wpt>
  <wpt lat="47.22032" lon="0.06131">
    <ele>31.1</ele>
    <name><![CDATA[022]]></name>
  </wpt>
  <wpt lat="47.22118" lon="0.05935">
    <ele>29.3</ele>
    <name><![CDATA[023]]></name>
  </wpt>
  <wpt lat="47.2272" lon="0.05103">
    <ele>28.8</ele>
    <name><![CDATA[024]]></name>
  </wpt>
  <wpt lat="47.22734" lon="0.05007">
    <ele>28.7</ele>
    <name><![CDATA[025]]></name>
  </wpt>
  <wpt lat="47.22217" lon="0.04652">
    <ele>32.9</ele>
    <name><![CDATA[026]]></name>
  </wpt>
  <wpt lat="47.22261" lon="0.04676">
    <ele>31.1</ele>
    <name><![CDATA[027]]></name>
  </wpt>
  <wpt lat="47.22565" lon="0.04002">
    <ele>29.4</ele>
    <name><![CDATA[028]]></name>
  </wpt>
  <wpt lat="47.22425" lon="0.03802">
    <ele>30.3</ele>
    <name><![CDATA[029]]></name>
  </wpt>
  <wpt lat="47.22324" lon="0.03625">
    <ele>32</ele>
    <name><![CDATA[030]]></name>
  </wpt>
  <wpt lat="47.22259" lon="0.0349">
    <ele>34.7</ele>
    <name><![CDATA[031]]></name>
  </wpt>
  <trk>
    <name><![CDATA[bitume_3]]></name>
    <trkseg>
      <trkpt lat="47.21715" lon="0.07601">
        <ele>35</ele>
        <time>2021-07-29T10:16:30Z</time>
      </trkpt>
      <trkpt lat="47.21715" lon="0.07586">
        <ele>35</ele>
        <time>2021-07-29T10:16:39Z</time>
      </trkpt>
      <trkpt lat="47.21716" lon="0.07571">
        <ele>35</ele>
        <time>2021-07-29T10:16:49Z</time>
      </trkpt>
      <trkpt lat="47.21716" lon="0.07558">
        <ele>35</ele>
        <time>2021-07-29T10:17:05Z</time>
      </trkpt>
      <trkpt lat="47.21717" lon="0.07543">
        <ele>35</ele>
        <time>2021-07-29T10:17:13Z</time>
      </trkpt>
      <trkpt lat="47.21717" lon="0.07529">
        <ele>35</ele>
        <time>2021-07-29T10:17:21Z</time>
      </trkpt>
      <trkpt lat="47.21719" lon="0.07511">
        <ele>35</ele>
        <time>2021-07-29T10:17:32Z</time>
      </trkpt>
      <trkpt lat="47.21721" lon="0.07494">
        <ele>35</ele>
        <time>2021-07-29T10:17:41Z</time>
      </trkpt>
      <trkpt lat="47.21723" lon="0.0748">
        <ele>35</ele>
        <time>2021-07-29T10:17:48Z</time>
      </trkpt>
      <trkpt lat="47.21725" lon="0.07465">
        <ele>35</ele>
        <time>2021-07-29T10:17:56Z</time>
      </trkpt>
      <trkpt lat="47.21729" lon="0.07451">
        <ele>35</ele>
        <time>2021-07-29T10:18:04Z</time>
      </trkpt>
      <trkpt lat="47.21732" lon="0.07436">
        <ele>35</ele>
        <time>2021-07-29T10:18:12Z</time>
      </trkpt>
      <trkpt lat="47.21734" lon="0.07421">
        <ele>35</ele>
        <time>2021-07-29T10:18:20Z</time>
      </trkpt>
      <trkpt lat="47.21736" lon="0.07406">
        <ele>35</ele>
        <time>2021-07-29T10:18:28Z</time>
      </trkpt>
      <trkpt lat="47.21737" lon="0.07392">
        <ele>35</ele>
        <time>2021-07-29T10:18:35Z</time>
      </trkpt>
      <trkpt lat="47.21737" lon="0.07376">
        <ele>35</ele>
        <time>2021-07-29T10:18:44Z</time>
      </trkpt>
      <trkpt lat="47.21741" lon="0.07359">
        <ele>35</ele>
        <time>2021-07-29T10:18:52Z</time>
      </trkpt>
      <trkpt lat="47.21743" lon="0.07344">
        <ele>35</ele>
        <time>2021-07-29T10:19:00Z</time>
      </trkpt>
      <trkpt lat="47.21744" lon="0.0733">
        <ele>35</ele>
        <time>2021-07-29T10:19:07Z</time>
      </trkpt>
      <trkpt lat="47.21746" lon="0.07315">
        <ele>36</ele>
        <time>2021-07-29T10:19:14Z</time>
      </trkpt>
      <trkpt lat="47.21747" lon="0.073">
        <ele>35</ele>
        <time>2021-07-29T10:19:22Z</time>
      </trkpt>
      <trkpt lat="47.21748" lon="0.07286">
        <ele>36</ele>
        <time>2021-07-29T10:19:30Z</time>
      </trkpt>
      <trkpt lat="47.21751" lon="0.07272">
        <ele>36</ele>
        <time>2021-07-29T10:19:37Z</time>
      </trkpt>
      <trkpt lat="47.2175" lon="0.07257">
        <ele>35</ele>
        <time>2021-07-29T10:19:45Z</time>
      </trkpt>
      <trkpt lat="47.21752" lon="0.07241">
        <ele>35</ele>
        <time>2021-07-29T10:19:54Z</time>
      </trkpt>
      <trkpt lat="47.21752" lon="0.07224">
        <ele>35</ele>
        <time>2021-07-29T10:20:02Z</time>
      </trkpt>
      <trkpt lat="47.21754" lon="0.0721">
        <ele>35</ele>
        <time>2021-07-29T10:20:09Z</time>
      </trkpt>
      <trkpt lat="47.21755" lon="0.07195">
        <ele>35</ele>
        <time>2021-07-29T10:20:16Z</time>
      </trkpt>
      <trkpt lat="47.21756" lon="0.0718">
        <ele>35</ele>
        <time>2021-07-29T10:20:24Z</time>
      </trkpt>
      <trkpt lat="47.21759" lon="0.07166">
        <ele>35</ele>
        <time>2021-07-29T10:20:31Z</time>
      </trkpt>
      <trkpt lat="47.21762" lon="0.07152">
        <ele>35</ele>
        <time>2021-07-29T10:20:39Z</time>
      </trkpt>
      <trkpt lat="47.21764" lon="0.07139">
        <ele>35</ele>
        <time>2021-07-29T10:20:47Z</time>
      </trkpt>
      <trkpt lat="47.21766" lon="0.07123">
        <ele>35</ele>
        <time>2021-07-29T10:20:56Z</time>
      </trkpt>
      <trkpt lat="47.21769" lon="0.07109">
        <ele>35</ele>
        <time>2021-07-29T10:21:28Z</time>
      </trkpt>
      <trkpt lat="47.21771" lon="0.07095">
        <ele>35</ele>
        <time>2021-07-29T10:21:37Z</time>
      </trkpt>
      <trkpt lat="47.21774" lon="0.0708">
        <ele>35</ele>
        <time>2021-07-29T10:21:46Z</time>
      </trkpt>
      <trkpt lat="47.21776" lon="0.07062">
        <ele>35</ele>
        <time>2021-07-29T10:21:54Z</time>
      </trkpt>
      <trkpt lat="47.21777" lon="0.07047">
        <ele>36</ele>
        <time>2021-07-29T10:22:03Z</time>
      </trkpt>
      <trkpt lat="47.2178" lon="0.07033">
        <ele>36</ele>
        <time>2021-07-29T10:22:11Z</time>
      </trkpt>
      <trkpt lat="47.21782" lon="0.07019">
        <ele>36</ele>
        <time>2021-07-29T10:22:18Z</time>
      </trkpt>
      <trkpt lat="47.21784" lon="0.07006">
        <ele>36</ele>
        <time>2021-07-29T10:22:25Z</time>
      </trkpt>
      <trkpt lat="47.21786" lon="0.06992">
        <ele>36</ele>
        <time>2021-07-29T10:22:33Z</time>
      </trkpt>
      <trkpt lat="47.21787" lon="0.06978">
        <ele>35</ele>
        <time>2021-07-29T10:22:41Z</time>
      </trkpt>
      <trkpt lat="47.21789" lon="0.06964">
        <ele>35</ele>
        <time>2021-07-29T10:22:48Z</time>
      </trkpt>
      <trkpt lat="47.2179" lon="0.06951">
        <ele>35</ele>
        <time>2021-07-29T10:22:56Z</time>
      </trkpt>
      <trkpt lat="47.21791" lon="0.06937">
        <ele>35</ele>
        <time>2021-07-29T10:23:03Z</time>
      </trkpt>
      <trkpt lat="47.21791" lon="0.06922">
        <ele>35</ele>
        <time>2021-07-29T10:23:11Z</time>
      </trkpt>
      <trkpt lat="47.21793" lon="0.06908">
        <ele>35</ele>
        <time>2021-07-29T10:23:19Z</time>
      </trkpt>
      <trkpt lat="47.21794" lon="0.06893">
        <ele>35</ele>
        <time>2021-07-29T10:23:26Z</time>
      </trkpt>
      <trkpt lat="47.21794" lon="0.06879">
        <ele>35</ele>
        <time>2021-07-29T10:23:34Z</time>
      </trkpt>
      <trkpt lat="47.21796" lon="0.06865">
        <ele>35</ele>
        <time>2021-07-29T10:23:41Z</time>
      </trkpt>
      <trkpt lat="47.21797" lon="0.0685">
        <ele>35</ele>
        <time>2021-07-29T10:23:48Z</time>
      </trkpt>
      <trkpt lat="47.218" lon="0.06837">
        <ele>35</ele>
        <time>2021-07-29T10:23:55Z</time>
      </trkpt>
      <trkpt lat="47.21803" lon="0.06824">
        <ele>35</ele>
        <time>2021-07-29T10:24:01Z</time>
      </trkpt>
      <trkpt lat="47.21804" lon="0.06809">
        <ele>35</ele>
        <time>2021-07-29T10:24:09Z</time>
      </trkpt>
      <trkpt lat="47.21807" lon="0.06797">
        <ele>35</ele>
        <time>2021-07-29T10:24:16Z</time>
      </trkpt>
      <trkpt lat="47.2181" lon="0.06784">
        <ele>35</ele>
        <time>2021-07-29T10:24:23Z</time>
      </trkpt>
      <trkpt lat="47.21814" lon="0.06771">
        <ele>35</ele>
        <time>2021-07-29T10:24:30Z</time>
      </trkpt>
      <trkpt lat="47.21817" lon="0.06757">
        <ele>35</ele>
        <time>2021-07-29T10:24:38Z</time>
      </trkpt>
      <trkpt lat="47.21819" lon="0.06744">
        <ele>35</ele>
        <time>2021-07-29T10:24:46Z</time>
      </trkpt>
      <trkpt lat="47.21821" lon="0.06731">
        <ele>35</ele>
        <time>2021-07-29T10:24:54Z</time>
      </trkpt>
      <trkpt lat="47.21822" lon="0.06716">
        <ele>35</ele>
        <time>2021-07-29T10:25:01Z</time>
      </trkpt>
      <trkpt lat="47.21825" lon="0.06702">
        <ele>35</ele>
        <time>2021-07-29T10:25:09Z</time>
      </trkpt>
      <trkpt lat="47.21828" lon="0.06688">
        <ele>35</ele>
        <time>2021-07-29T10:25:17Z</time>
      </trkpt>
      <trkpt lat="47.21831" lon="0.06674">
        <ele>35</ele>
        <time>2021-07-29T10:25:24Z</time>
      </trkpt>
      <trkpt lat="47.21835" lon="0.0666">
        <ele>35</ele>
        <time>2021-07-29T10:25:32Z</time>
      </trkpt>
      <trkpt lat="47.21836" lon="0.06644">
        <ele>35</ele>
        <time>2021-07-29T10:25:40Z</time>
      </trkpt>
      <trkpt lat="47.2184" lon="0.06629">
        <ele>35</ele>
        <time>2021-07-29T10:25:48Z</time>
      </trkpt>
      <trkpt lat="47.21845" lon="0.06616">
        <ele>35</ele>
        <time>2021-07-29T10:25:56Z</time>
      </trkpt>
      <trkpt lat="47.21853" lon="0.06604">
        <ele>35</ele>
        <time>2021-07-29T10:26:10Z</time>
      </trkpt>
      <trkpt lat="47.21858" lon="0.06591">
        <ele>35</ele>
        <time>2021-07-29T10:26:18Z</time>
      </trkpt>
      <trkpt lat="47.21862" lon="0.06579">
        <ele>35</ele>
        <time>2021-07-29T10:26:26Z</time>
      </trkpt>
      <trkpt lat="47.21867" lon="0.06564">
        <ele>35</ele>
        <time>2021-07-29T10:26:35Z</time>
      </trkpt>
      <trkpt lat="47.2187" lon="0.0655">
        <ele>35</ele>
        <time>2021-07-29T10:26:43Z</time>
      </trkpt>
      <trkpt lat="47.21875" lon="0.06532">
        <ele>35</ele>
        <time>2021-07-29T10:26:52Z</time>
      </trkpt>
      <trkpt lat="47.21879" lon="0.06518">
        <ele>35</ele>
        <time>2021-07-29T10:26:59Z</time>
      </trkpt>
      <trkpt lat="47.2188" lon="0.06502">
        <ele>35</ele>
        <time>2021-07-29T10:27:06Z</time>
      </trkpt>
      <trkpt lat="47.21884" lon="0.06488">
        <ele>35</ele>
        <time>2021-07-29T10:27:14Z</time>
      </trkpt>
      <trkpt lat="47.21888" lon="0.06476">
        <ele>35</ele>
        <time>2021-07-29T10:27:19Z</time>
      </trkpt>
      <trkpt lat="47.2189" lon="0.06463">
        <ele>35</ele>
        <time>2021-07-29T10:27:27Z</time>
      </trkpt>
      <trkpt lat="47.21893" lon="0.06449">
        <ele>35</ele>
        <time>2021-07-29T10:27:37Z</time>
      </trkpt>
      <trkpt lat="47.219" lon="0.06436">
        <ele>35</ele>
        <time>2021-07-29T10:27:49Z</time>
      </trkpt>
      <trkpt lat="47.21904" lon="0.06417">
        <ele>35</ele>
        <time>2021-07-29T10:27:59Z</time>
      </trkpt>
      <trkpt lat="47.21908" lon="0.06403">
        <ele>35</ele>
        <time>2021-07-29T10:28:12Z</time>
      </trkpt>
      <trkpt lat="47.21914" lon="0.06388">
        <ele>34</ele>
        <time>2021-07-29T10:28:22Z</time>
      </trkpt>
      <trkpt lat="47.21922" lon="0.06373">
        <ele>35</ele>
        <time>2021-07-29T10:28:31Z</time>
      </trkpt>
      <trkpt lat="47.21928" lon="0.0636">
        <ele>34</ele>
        <time>2021-07-29T10:28:40Z</time>
      </trkpt>
      <trkpt lat="47.21932" lon="0.06346">
        <ele>34</ele>
        <time>2021-07-29T10:28:49Z</time>
      </trkpt>
      <trkpt lat="47.21937" lon="0.06332">
        <ele>34</ele>
        <time>2021-07-29T10:28:58Z</time>
      </trkpt>
      <trkpt lat="47.21944" lon="0.06317">
        <ele>34</ele>
        <time>2021-07-29T10:29:07Z</time>
      </trkpt>
      <trkpt lat="47.21952" lon="0.06301">
        <ele>34</ele>
        <time>2021-07-29T10:29:18Z</time>
      </trkpt>
      <trkpt lat="47.21962" lon="0.06291">
        <ele>34</ele>
        <time>2021-07-29T10:29:26Z</time>
      </trkpt>
      <trkpt lat="47.21968" lon="0.06278">
        <ele>35</ele>
        <time>2021-07-29T10:29:35Z</time>
      </trkpt>
      <trkpt lat="47.21974" lon="0.06267">
        <ele>35</ele>
        <time>2021-07-29T10:29:44Z</time>
      </trkpt>
      <trkpt lat="47.21982" lon="0.06253">
        <ele>34</ele>
        <time>2021-07-29T10:29:54Z</time>
      </trkpt>
      <trkpt lat="47.21991" lon="0.06236">
        <ele>34</ele>
        <time>2021-07-29T10:30:06Z</time>
      </trkpt>
      <trkpt lat="47.21993" lon="0.06223">
        <ele>34</ele>
        <time>2021-07-29T10:30:27Z</time>
      </trkpt>
      <trkpt lat="47.21995" lon="0.06221">
        <ele>33</ele>
        <time>2021-07-29T10:31:03Z</time>
      </trkpt>
      <trkpt lat="47.21994" lon="0.06216">
        <ele>34</ele>
        <time>2021-07-29T10:32:35Z</time>
      </trkpt>
      <trkpt lat="47.22001" lon="0.06205">
        <ele>35</ele>
        <time>2021-07-29T10:32:57Z</time>
      </trkpt>
      <trkpt lat="47.22007" lon="0.06194">
        <ele>35</ele>
        <time>2021-07-29T10:33:09Z</time>
      </trkpt>
      <trkpt lat="47.22014" lon="0.06181">
        <ele>35</ele>
        <time>2021-07-29T10:33:23Z</time>
      </trkpt>
      <trkpt lat="47.22019" lon="0.06162">
        <ele>35</ele>
        <time>2021-07-29T10:33:37Z</time>
      </trkpt>
      <trkpt lat="47.22024" lon="0.06145">
        <ele>35</ele>
        <time>2021-07-29T10:33:47Z</time>
      </trkpt>
      <trkpt lat="47.2203" lon="0.06133">
        <ele>35</ele>
        <time>2021-07-29T10:34:17Z</time>
      </trkpt>
      <trkpt lat="47.22032" lon="0.06122">
        <ele>35</ele>
        <time>2021-07-29T10:34:49Z</time>
      </trkpt>
      <trkpt lat="47.22037" lon="0.06107">
        <ele>35</ele>
        <time>2021-07-29T10:34:59Z</time>
      </trkpt>
      <trkpt lat="47.22042" lon="0.06094">
        <ele>35</ele>
        <time>2021-07-29T10:35:08Z</time>
      </trkpt>
      <trkpt lat="47.22047" lon="0.06081">
        <ele>35</ele>
        <time>2021-07-29T10:35:17Z</time>
      </trkpt>
      <trkpt lat="47.22052" lon="0.06067">
        <ele>35</ele>
        <time>2021-07-29T10:35:27Z</time>
      </trkpt>
      <trkpt lat="47.22056" lon="0.06053">
        <ele>35</ele>
        <time>2021-07-29T10:35:36Z</time>
      </trkpt>
      <trkpt lat="47.2206" lon="0.06037">
        <ele>35</ele>
        <time>2021-07-29T10:35:48Z</time>
      </trkpt>
      <trkpt lat="47.22065" lon="0.0602">
        <ele>34</ele>
        <time>2021-07-29T10:35:58Z</time>
      </trkpt>
      <trkpt lat="47.2207" lon="0.06003">
        <ele>35</ele>
        <time>2021-07-29T10:36:06Z</time>
      </trkpt>
      <trkpt lat="47.22075" lon="0.05988">
        <ele>35</ele>
        <time>2021-07-29T10:36:14Z</time>
      </trkpt>
      <trkpt lat="47.22079" lon="0.05975">
        <ele>34</ele>
        <time>2021-07-29T10:36:22Z</time>
      </trkpt>
      <trkpt lat="47.22084" lon="0.05962">
        <ele>34</ele>
        <time>2021-07-29T10:36:34Z</time>
      </trkpt>
      <trkpt lat="47.22089" lon="0.05947">
        <ele>34</ele>
        <time>2021-07-29T10:36:42Z</time>
      </trkpt>
      <trkpt lat="47.22096" lon="0.05935">
        <ele>34</ele>
        <time>2021-07-29T10:36:51Z</time>
      </trkpt>
      <trkpt lat="47.22104" lon="0.05932">
        <ele>34</ele>
        <time>2021-07-29T10:37:07Z</time>
      </trkpt>
      <trkpt lat="47.22116" lon="0.05933">
        <ele>35</ele>
        <time>2021-07-29T10:37:51Z</time>
      </trkpt>
      <trkpt lat="47.22125" lon="0.05941">
        <ele>35</ele>
        <time>2021-07-29T10:38:20Z</time>
      </trkpt>
      <trkpt lat="47.22135" lon="0.05944">
        <ele>35</ele>
        <time>2021-07-29T10:38:30Z</time>
      </trkpt>
      <trkpt lat="47.22146" lon="0.05949">
        <ele>35</ele>
        <time>2021-07-29T10:38:40Z</time>
      </trkpt>
      <trkpt lat="47.22156" lon="0.05951">
        <ele>35</ele>
        <time>2021-07-29T10:38:49Z</time>
      </trkpt>
      <trkpt lat="47.22166" lon="0.05954">
        <ele>36</ele>
        <time>2021-07-29T10:38:59Z</time>
      </trkpt>
      <trkpt lat="47.22175" lon="0.05959">
        <ele>35</ele>
        <time>2021-07-29T10:39:13Z</time>
      </trkpt>
      <trkpt lat="47.22185" lon="0.05963">
        <ele>36</ele>
        <time>2021-07-29T10:39:22Z</time>
      </trkpt>
      <trkpt lat="47.22193" lon="0.05958">
        <ele>36</ele>
        <time>2021-07-29T10:39:34Z</time>
      </trkpt>
      <trkpt lat="47.22194" lon="0.05944">
        <ele>36</ele>
        <time>2021-07-29T10:40:05Z</time>
      </trkpt>
      <trkpt lat="47.22198" lon="0.05932">
        <ele>36</ele>
        <time>2021-07-29T10:40:13Z</time>
      </trkpt>
      <trkpt lat="47.22203" lon="0.05918">
        <ele>35</ele>
        <time>2021-07-29T10:40:28Z</time>
      </trkpt>
      <trkpt lat="47.22206" lon="0.05909">
        <ele>35</ele>
        <time>2021-07-29T10:40:45Z</time>
      </trkpt>
      <trkpt lat="47.22208" lon="0.05894">
        <ele>35</ele>
        <time>2021-07-29T10:41:03Z</time>
      </trkpt>
      <trkpt lat="47.22209" lon="0.05877">
        <ele>35</ele>
        <time>2021-07-29T10:41:12Z</time>
      </trkpt>
      <trkpt lat="47.22213" lon="0.05862">
        <ele>35</ele>
        <time>2021-07-29T10:41:25Z</time>
      </trkpt>
      <trkpt lat="47.22216" lon="0.05847">
        <ele>35</ele>
        <time>2021-07-29T10:41:33Z</time>
      </trkpt>
      <trkpt lat="47.2222" lon="0.05833">
        <ele>35</ele>
        <time>2021-07-29T10:41:39Z</time>
      </trkpt>
      <trkpt lat="47.22223" lon="0.05816">
        <ele>35</ele>
        <time>2021-07-29T10:41:47Z</time>
      </trkpt>
      <trkpt lat="47.22225" lon="0.05802">
        <ele>35</ele>
        <time>2021-07-29T10:41:55Z</time>
      </trkpt>
      <trkpt lat="47.22227" lon="0.05788">
        <ele>35</ele>
        <time>2021-07-29T10:42:02Z</time>
      </trkpt>
      <trkpt lat="47.22228" lon="0.05774">
        <ele>35</ele>
        <time>2021-07-29T10:42:09Z</time>
      </trkpt>
      <trkpt lat="47.22232" lon="0.05762">
        <ele>35</ele>
        <time>2021-07-29T10:42:16Z</time>
      </trkpt>
      <trkpt lat="47.2224" lon="0.05751">
        <ele>35</ele>
        <time>2021-07-29T10:42:25Z</time>
      </trkpt>
      <trkpt lat="47.2225" lon="0.05744">
        <ele>35</ele>
        <time>2021-07-29T10:42:31Z</time>
      </trkpt>
      <trkpt lat="47.22258" lon="0.05732">
        <ele>35</ele>
        <time>2021-07-29T10:42:42Z</time>
      </trkpt>
      <trkpt lat="47.22266" lon="0.05721">
        <ele>35</ele>
        <time>2021-07-29T10:42:50Z</time>
      </trkpt>
      <trkpt lat="47.22275" lon="0.05712">
        <ele>35</ele>
        <time>2021-07-29T10:42:56Z</time>
      </trkpt>
      <trkpt lat="47.22283" lon="0.057">
        <ele>35</ele>
        <time>2021-07-29T10:43:04Z</time>
      </trkpt>
      <trkpt lat="47.22289" lon="0.05687">
        <ele>35</ele>
        <time>2021-07-29T10:43:13Z</time>
      </trkpt>
      <trkpt lat="47.22295" lon="0.05676">
        <ele>35</ele>
        <time>2021-07-29T10:43:27Z</time>
      </trkpt>
      <trkpt lat="47.22303" lon="0.05665">
        <ele>36</ele>
        <time>2021-07-29T10:43:33Z</time>
      </trkpt>
      <trkpt lat="47.22313" lon="0.05657">
        <ele>36</ele>
        <time>2021-07-29T10:43:41Z</time>
      </trkpt>
      <trkpt lat="47.22321" lon="0.0565">
        <ele>36</ele>
        <time>2021-07-29T10:43:49Z</time>
      </trkpt>
      <trkpt lat="47.22331" lon="0.05644">
        <ele>36</ele>
        <time>2021-07-29T10:43:57Z</time>
      </trkpt>
      <trkpt lat="47.22341" lon="0.05637">
        <ele>35</ele>
        <time>2021-07-29T10:44:06Z</time>
      </trkpt>
      <trkpt lat="47.22354" lon="0.05629">
        <ele>36</ele>
        <time>2021-07-29T10:44:17Z</time>
      </trkpt>
      <trkpt lat="47.22365" lon="0.05621">
        <ele>36</ele>
        <time>2021-07-29T10:44:25Z</time>
      </trkpt>
      <trkpt lat="47.22377" lon="0.05616">
        <ele>36</ele>
        <time>2021-07-29T10:44:33Z</time>
      </trkpt>
      <trkpt lat="47.22389" lon="0.0561">
        <ele>36</ele>
        <time>2021-07-29T10:44:42Z</time>
      </trkpt>
      <trkpt lat="47.224" lon="0.05605">
        <ele>35</ele>
        <time>2021-07-29T10:44:51Z</time>
      </trkpt>
      <trkpt lat="47.22412" lon="0.056">
        <ele>36</ele>
        <time>2021-07-29T10:45:00Z</time>
      </trkpt>
      <trkpt lat="47.22425" lon="0.05591">
        <ele>36</ele>
        <time>2021-07-29T10:45:10Z</time>
      </trkpt>
      <trkpt lat="47.22435" lon="0.05584">
        <ele>36</ele>
        <time>2021-07-29T10:45:17Z</time>
      </trkpt>
      <trkpt lat="47.22443" lon="0.05576">
        <ele>36</ele>
        <time>2021-07-29T10:45:25Z</time>
      </trkpt>
      <trkpt lat="47.22452" lon="0.05569">
        <ele>36</ele>
        <time>2021-07-29T10:45:32Z</time>
      </trkpt>
      <trkpt lat="47.22461" lon="0.0556">
        <ele>36</ele>
        <time>2021-07-29T10:45:41Z</time>
      </trkpt>
      <trkpt lat="47.22467" lon="0.05551">
        <ele>36</ele>
        <time>2021-07-29T10:45:48Z</time>
      </trkpt>
      <trkpt lat="47.22476" lon="0.05541">
        <ele>36</ele>
        <time>2021-07-29T10:45:57Z</time>
      </trkpt>
      <trkpt lat="47.22485" lon="0.05532">
        <ele>36</ele>
        <time>2021-07-29T10:46:05Z</time>
      </trkpt>
      <trkpt lat="47.22494" lon="0.05525">
        <ele>36</ele>
        <time>2021-07-29T10:46:13Z</time>
      </trkpt>
      <trkpt lat="47.22502" lon="0.05517">
        <ele>36</ele>
        <time>2021-07-29T10:46:20Z</time>
      </trkpt>
      <trkpt lat="47.22511" lon="0.05508">
        <ele>36</ele>
        <time>2021-07-29T10:46:28Z</time>
      </trkpt>
      <trkpt lat="47.2252" lon="0.05499">
        <ele>36</ele>
        <time>2021-07-29T10:46:36Z</time>
      </trkpt>
      <trkpt lat="47.22528" lon="0.0549">
        <ele>36</ele>
        <time>2021-07-29T10:46:43Z</time>
      </trkpt>
      <trkpt lat="47.22536" lon="0.05481">
        <ele>36</ele>
        <time>2021-07-29T10:46:51Z</time>
      </trkpt>
      <trkpt lat="47.22544" lon="0.05473">
        <ele>36</ele>
        <time>2021-07-29T10:46:57Z</time>
      </trkpt>
      <trkpt lat="47.22551" lon="0.05464">
        <ele>36</ele>
        <time>2021-07-29T10:47:05Z</time>
      </trkpt>
      <trkpt lat="47.22555" lon="0.05451">
        <ele>36</ele>
        <time>2021-07-29T10:47:13Z</time>
      </trkpt>
      <trkpt lat="47.22561" lon="0.05438">
        <ele>36</ele>
        <time>2021-07-29T10:47:21Z</time>
      </trkpt>
      <trkpt lat="47.22566" lon="0.05425">
        <ele>36</ele>
        <time>2021-07-29T10:47:29Z</time>
      </trkpt>
      <trkpt lat="47.22571" lon="0.05411">
        <ele>36</ele>
        <time>2021-07-29T10:47:37Z</time>
      </trkpt>
      <trkpt lat="47.22573" lon="0.05397">
        <ele>36</ele>
        <time>2021-07-29T10:47:43Z</time>
      </trkpt>
      <trkpt lat="47.22578" lon="0.05385">
        <ele>36</ele>
        <time>2021-07-29T10:47:55Z</time>
      </trkpt>
      <trkpt lat="47.22585" lon="0.05373">
        <ele>36</ele>
        <time>2021-07-29T10:48:29Z</time>
      </trkpt>
      <trkpt lat="47.2259" lon="0.0536">
        <ele>36</ele>
        <time>2021-07-29T10:48:37Z</time>
      </trkpt>
      <trkpt lat="47.22596" lon="0.05348">
        <ele>36</ele>
        <time>2021-07-29T10:48:45Z</time>
      </trkpt>
      <trkpt lat="47.22599" lon="0.05333">
        <ele>36</ele>
        <time>2021-07-29T10:48:53Z</time>
      </trkpt>
      <trkpt lat="47.22603" lon="0.05321">
        <ele>36</ele>
        <time>2021-07-29T10:49:00Z</time>
      </trkpt>
      <trkpt lat="47.22607" lon="0.05309">
        <ele>36</ele>
        <time>2021-07-29T10:49:06Z</time>
      </trkpt>
      <trkpt lat="47.22611" lon="0.05297">
        <ele>35</ele>
        <time>2021-07-29T10:49:14Z</time>
      </trkpt>
      <trkpt lat="47.22616" lon="0.05286">
        <ele>36</ele>
        <time>2021-07-29T10:49:20Z</time>
      </trkpt>
      <trkpt lat="47.22621" lon="0.05273">
        <ele>35</ele>
        <time>2021-07-29T10:49:28Z</time>
      </trkpt>
      <trkpt lat="47.22625" lon="0.05259">
        <ele>35</ele>
        <time>2021-07-29T10:49:36Z</time>
      </trkpt>
      <trkpt lat="47.2263" lon="0.05247">
        <ele>36</ele>
        <time>2021-07-29T10:49:44Z</time>
      </trkpt>
      <trkpt lat="47.22637" lon="0.05236">
        <ele>36</ele>
        <time>2021-07-29T10:49:50Z</time>
      </trkpt>
      <trkpt lat="47.22643" lon="0.05223">
        <ele>36</ele>
        <time>2021-07-29T10:49:58Z</time>
      </trkpt>
      <trkpt lat="47.22649" lon="0.05212">
        <ele>36</ele>
        <time>2021-07-29T10:50:05Z</time>
      </trkpt>
      <trkpt lat="47.22653" lon="0.05201">
        <ele>36</ele>
        <time>2021-07-29T10:50:12Z</time>
      </trkpt>
      <trkpt lat="47.22659" lon="0.05188">
        <ele>36</ele>
        <time>2021-07-29T10:50:19Z</time>
      </trkpt>
      <trkpt lat="47.22663" lon="0.05176">
        <ele>36</ele>
        <time>2021-07-29T10:50:27Z</time>
      </trkpt>
      <trkpt lat="47.22668" lon="0.05162">
        <ele>36</ele>
        <time>2021-07-29T10:50:35Z</time>
      </trkpt>
      <trkpt lat="47.22671" lon="0.05149">
        <ele>35</ele>
        <time>2021-07-29T10:50:42Z</time>
      </trkpt>
      <trkpt lat="47.22675" lon="0.05135">
        <ele>36</ele>
        <time>2021-07-29T10:50:51Z</time>
      </trkpt>
      <trkpt lat="47.22678" lon="0.05121">
        <ele>35</ele>
        <time>2021-07-29T10:50:59Z</time>
      </trkpt>
      <trkpt lat="47.2268" lon="0.05106">
        <ele>36</ele>
        <time>2021-07-29T10:51:13Z</time>
      </trkpt>
      <trkpt lat="47.22687" lon="0.051">
        <ele>36</ele>
        <time>2021-07-29T10:51:39Z</time>
      </trkpt>
      <trkpt lat="47.22693" lon="0.05087">
        <ele>36</ele>
        <time>2021-07-29T10:51:51Z</time>
      </trkpt>
      <trkpt lat="47.22698" lon="0.05075">
        <ele>35</ele>
        <time>2021-07-29T10:52:04Z</time>
      </trkpt>
      <trkpt lat="47.22703" lon="0.05062">
        <ele>35</ele>
        <time>2021-07-29T10:52:13Z</time>
      </trkpt>
      <trkpt lat="47.2271" lon="0.05052">
        <ele>36</ele>
        <time>2021-07-29T10:52:21Z</time>
      </trkpt>
      <trkpt lat="47.22721" lon="0.05062">
        <ele>37</ele>
        <time>2021-07-29T10:54:03Z</time>
      </trkpt>
      <trkpt lat="47.22721" lon="0.05079">
        <ele>37</ele>
        <time>2021-07-29T10:54:14Z</time>
      </trkpt>
      <trkpt lat="47.22719" lon="0.05095">
        <ele>39</ele>
        <time>2021-07-29T10:54:25Z</time>
      </trkpt>
      <trkpt lat="47.22721" lon="0.05102">
        <ele>40</ele>
        <time>2021-07-29T10:55:05Z</time>
      </trkpt>
      <trkpt lat="47.22726" lon="0.05092">
        <ele>40</ele>
        <time>2021-07-29T10:55:23Z</time>
      </trkpt>
      <trkpt lat="47.22729" lon="0.05078">
        <ele>41</ele>
        <time>2021-07-29T10:55:32Z</time>
      </trkpt>
      <trkpt lat="47.22734" lon="0.05065">
        <ele>41</ele>
        <time>2021-07-29T10:55:39Z</time>
      </trkpt>
      <trkpt lat="47.22738" lon="0.05051">
        <ele>41</ele>
        <time>2021-07-29T10:55:46Z</time>
      </trkpt>
      <trkpt lat="47.22744" lon="0.05038">
        <ele>41</ele>
        <time>2021-07-29T10:55:57Z</time>
      </trkpt>
      <trkpt lat="47.22748" lon="0.05025">
        <ele>41</ele>
        <time>2021-07-29T10:56:05Z</time>
      </trkpt>
      <trkpt lat="47.22742" lon="0.05013">
        <ele>42</ele>
        <time>2021-07-29T10:56:18Z</time>
      </trkpt>
      <trkpt lat="47.22735" lon="0.05007">
        <ele>41</ele>
        <time>2021-07-29T10:56:44Z</time>
      </trkpt>
      <trkpt lat="47.22731" lon="0.05005">
        <ele>41</ele>
        <time>2021-07-29T10:57:37Z</time>
      </trkpt>
      <trkpt lat="47.22721" lon="0.04997">
        <ele>41</ele>
        <time>2021-07-29T10:57:49Z</time>
      </trkpt>
      <trkpt lat="47.22712" lon="0.04988">
        <ele>41</ele>
        <time>2021-07-29T10:57:59Z</time>
      </trkpt>
      <trkpt lat="47.22703" lon="0.04982">
        <ele>41</ele>
        <time>2021-07-29T10:58:08Z</time>
      </trkpt>
      <trkpt lat="47.22692" lon="0.04975">
        <ele>42</ele>
        <time>2021-07-29T10:58:17Z</time>
      </trkpt>
      <trkpt lat="47.22683" lon="0.04968">
        <ele>42</ele>
        <time>2021-07-29T10:58:26Z</time>
      </trkpt>
      <trkpt lat="47.22673" lon="0.04962">
        <ele>42</ele>
        <time>2021-07-29T10:58:37Z</time>
      </trkpt>
      <trkpt lat="47.2266" lon="0.0495">
        <ele>42</ele>
        <time>2021-07-29T10:58:49Z</time>
      </trkpt>
      <trkpt lat="47.22643" lon="0.04941">
        <ele>42</ele>
        <time>2021-07-29T10:58:59Z</time>
      </trkpt>
      <trkpt lat="47.2263" lon="0.04933">
        <ele>42</ele>
        <time>2021-07-29T10:59:08Z</time>
      </trkpt>
      <trkpt lat="47.22616" lon="0.04925">
        <ele>42</ele>
        <time>2021-07-29T10:59:21Z</time>
      </trkpt>
      <trkpt lat="47.22601" lon="0.04916">
        <ele>42</ele>
        <time>2021-07-29T10:59:33Z</time>
      </trkpt>
      <trkpt lat="47.22588" lon="0.04908">
        <ele>42</ele>
        <time>2021-07-29T10:59:45Z</time>
      </trkpt>
      <trkpt lat="47.22573" lon="0.04897">
        <ele>42</ele>
        <time>2021-07-29T10:59:58Z</time>
      </trkpt>
      <trkpt lat="47.2256" lon="0.04888">
        <ele>42</ele>
        <time>2021-07-29T11:00:07Z</time>
      </trkpt>
      <trkpt lat="47.22546" lon="0.0488">
        <ele>42</ele>
        <time>2021-07-29T11:00:19Z</time>
      </trkpt>
      <trkpt lat="47.22529" lon="0.04869">
        <ele>42</ele>
        <time>2021-07-29T11:00:35Z</time>
      </trkpt>
      <trkpt lat="47.22515" lon="0.0486">
        <ele>42</ele>
        <time>2021-07-29T11:00:46Z</time>
      </trkpt>
      <trkpt lat="47.22502" lon="0.04852">
        <ele>42</ele>
        <time>2021-07-29T11:01:02Z</time>
      </trkpt>
      <trkpt lat="47.22488" lon="0.04843">
        <ele>42</ele>
        <time>2021-07-29T11:01:14Z</time>
      </trkpt>
      <trkpt lat="47.22474" lon="0.04834">
        <ele>42</ele>
        <time>2021-07-29T11:01:26Z</time>
      </trkpt>
      <trkpt lat="47.22459" lon="0.04823">
        <ele>42</ele>
        <time>2021-07-29T11:01:39Z</time>
      </trkpt>
      <trkpt lat="47.22445" lon="0.04814">
        <ele>42</ele>
        <time>2021-07-29T11:01:51Z</time>
      </trkpt>
      <trkpt lat="47.22431" lon="0.04805">
        <ele>42</ele>
        <time>2021-07-29T11:02:03Z</time>
      </trkpt>
      <trkpt lat="47.22414" lon="0.04794">
        <ele>42</ele>
        <time>2021-07-29T11:02:16Z</time>
      </trkpt>
      <trkpt lat="47.22399" lon="0.04781">
        <ele>42</ele>
        <time>2021-07-29T11:02:30Z</time>
      </trkpt>
      <trkpt lat="47.22382" lon="0.04771">
        <ele>42</ele>
        <time>2021-07-29T11:02:43Z</time>
      </trkpt>
      <trkpt lat="47.22367" lon="0.04763">
        <ele>42</ele>
        <time>2021-07-29T11:02:56Z</time>
      </trkpt>
      <trkpt lat="47.22349" lon="0.04751">
        <ele>42</ele>
        <time>2021-07-29T11:03:11Z</time>
      </trkpt>
      <trkpt lat="47.22332" lon="0.04741">
        <ele>42</ele>
        <time>2021-07-29T11:03:24Z</time>
      </trkpt>
      <trkpt lat="47.22316" lon="0.0473">
        <ele>42</ele>
        <time>2021-07-29T11:03:38Z</time>
      </trkpt>
      <trkpt lat="47.22304" lon="0.04722">
        <ele>42</ele>
        <time>2021-07-29T11:03:48Z</time>
      </trkpt>
      <trkpt lat="47.22288" lon="0.04711">
        <ele>42</ele>
        <time>2021-07-29T11:04:03Z</time>
      </trkpt>
      <trkpt lat="47.22273" lon="0.04701">
        <ele>41</ele>
        <time>2021-07-29T11:04:16Z</time>
      </trkpt>
      <trkpt lat="47.22257" lon="0.0469">
        <ele>41</ele>
        <time>2021-07-29T11:04:32Z</time>
      </trkpt>
      <trkpt lat="47.22247" lon="0.04681">
        <ele>41</ele>
        <time>2021-07-29T11:04:47Z</time>
      </trkpt>
      <trkpt lat="47.22241" lon="0.04671">
        <ele>41</ele>
        <time>2021-07-29T11:05:17Z</time>
      </trkpt>
      <trkpt lat="47.22232" lon="0.04667">
        <ele>41</ele>
        <time>2021-07-29T11:05:46Z</time>
      </trkpt>
      <trkpt lat="47.22222" lon="0.04663">
        <ele>41</ele>
        <time>2021-07-29T11:06:32Z</time>
      </trkpt>
      <trkpt lat="47.22213" lon="0.04657">
        <ele>40</ele>
        <time>2021-07-29T11:07:11Z</time>
      </trkpt>
      <trkpt lat="47.22218" lon="0.04652">
        <ele>37</ele>
        <time>2021-07-29T11:08:00Z</time>
      </trkpt>
      <trkpt lat="47.22225" lon="0.04653">
        <ele>36</ele>
        <time>2021-07-29T11:09:12Z</time>
      </trkpt>
      <trkpt lat="47.22235" lon="0.04659">
        <ele>36</ele>
        <time>2021-07-29T11:09:22Z</time>
      </trkpt>
      <trkpt lat="47.22244" lon="0.04663">
        <ele>36</ele>
        <time>2021-07-29T11:09:31Z</time>
      </trkpt>
      <trkpt lat="47.22254" lon="0.04672">
        <ele>36</ele>
        <time>2021-07-29T11:09:45Z</time>
      </trkpt>
      <trkpt lat="47.2226" lon="0.04676">
        <ele>35</ele>
        <time>2021-07-29T11:10:16Z</time>
      </trkpt>
      <trkpt lat="47.22263" lon="0.04666">
        <ele>36</ele>
        <time>2021-07-29T11:10:46Z</time>
      </trkpt>
      <trkpt lat="47.2227" lon="0.04655">
        <ele>36</ele>
        <time>2021-07-29T11:10:56Z</time>
      </trkpt>
      <trkpt lat="47.22279" lon="0.04644">
        <ele>35</ele>
        <time>2021-07-29T11:11:07Z</time>
      </trkpt>
      <trkpt lat="47.22286" lon="0.04633">
        <ele>35</ele>
        <time>2021-07-29T11:11:17Z</time>
      </trkpt>
      <trkpt lat="47.22295" lon="0.04617">
        <ele>35</ele>
        <time>2021-07-29T11:11:29Z</time>
      </trkpt>
      <trkpt lat="47.22304" lon="0.04606">
        <ele>35</ele>
        <time>2021-07-29T11:11:39Z</time>
      </trkpt>
      <trkpt lat="47.22312" lon="0.04595">
        <ele>35</ele>
        <time>2021-07-29T11:11:48Z</time>
      </trkpt>
      <trkpt lat="47.22321" lon="0.04586">
        <ele>35</ele>
        <time>2021-07-29T11:11:56Z</time>
      </trkpt>
      <trkpt lat="47.22329" lon="0.04575">
        <ele>35</ele>
        <time>2021-07-29T11:12:05Z</time>
      </trkpt>
      <trkpt lat="47.22337" lon="0.04563">
        <ele>35</ele>
        <time>2021-07-29T11:12:14Z</time>
      </trkpt>
      <trkpt lat="47.22344" lon="0.04551">
        <ele>35</ele>
        <time>2021-07-29T11:12:23Z</time>
      </trkpt>
      <trkpt lat="47.22348" lon="0.04537">
        <ele>35</ele>
        <time>2021-07-29T11:12:31Z</time>
      </trkpt>
      <trkpt lat="47.22354" lon="0.04524">
        <ele>35</ele>
        <time>2021-07-29T11:12:39Z</time>
      </trkpt>
      <trkpt lat="47.22358" lon="0.04512">
        <ele>35</ele>
        <time>2021-07-29T11:12:47Z</time>
      </trkpt>
      <trkpt lat="47.22363" lon="0.04499">
        <ele>35</ele>
        <time>2021-07-29T11:12:54Z</time>
      </trkpt>
      <trkpt lat="47.2237" lon="0.04485">
        <ele>35</ele>
        <time>2021-07-29T11:13:02Z</time>
      </trkpt>
      <trkpt lat="47.22376" lon="0.04472">
        <ele>35</ele>
        <time>2021-07-29T11:13:10Z</time>
      </trkpt>
      <trkpt lat="47.22381" lon="0.04459">
        <ele>35</ele>
        <time>2021-07-29T11:13:18Z</time>
      </trkpt>
      <trkpt lat="47.22386" lon="0.04445">
        <ele>34</ele>
        <time>2021-07-29T11:13:26Z</time>
      </trkpt>
      <trkpt lat="47.22389" lon="0.04428">
        <ele>35</ele>
        <time>2021-07-29T11:13:34Z</time>
      </trkpt>
      <trkpt lat="47.22392" lon="0.04413">
        <ele>35</ele>
        <time>2021-07-29T11:13:42Z</time>
      </trkpt>
      <trkpt lat="47.22394" lon="0.04397">
        <ele>35</ele>
        <time>2021-07-29T11:13:50Z</time>
      </trkpt>
      <trkpt lat="47.22395" lon="0.04382">
        <ele>35</ele>
        <time>2021-07-29T11:13:58Z</time>
      </trkpt>
      <trkpt lat="47.22398" lon="0.04367">
        <ele>35</ele>
        <time>2021-07-29T11:14:06Z</time>
      </trkpt>
      <trkpt lat="47.22401" lon="0.04353">
        <ele>35</ele>
        <time>2021-07-29T11:14:14Z</time>
      </trkpt>
      <trkpt lat="47.22406" lon="0.0434">
        <ele>35</ele>
        <time>2021-07-29T11:14:22Z</time>
      </trkpt>
      <trkpt lat="47.22409" lon="0.04323">
        <ele>35</ele>
        <time>2021-07-29T11:14:30Z</time>
      </trkpt>
      <trkpt lat="47.22412" lon="0.04306">
        <ele>36</ele>
        <time>2021-07-29T11:14:38Z</time>
      </trkpt>
      <trkpt lat="47.22415" lon="0.04291">
        <ele>36</ele>
        <time>2021-07-29T11:14:46Z</time>
      </trkpt>
      <trkpt lat="47.2242" lon="0.04277">
        <ele>37</ele>
        <time>2021-07-29T11:14:54Z</time>
      </trkpt>
      <trkpt lat="47.22424" lon="0.04266">
        <ele>36</ele>
        <time>2021-07-29T11:15:01Z</time>
      </trkpt>
      <trkpt lat="47.2243" lon="0.04254">
        <ele>36</ele>
        <time>2021-07-29T11:15:09Z</time>
      </trkpt>
      <trkpt lat="47.22437" lon="0.04244">
        <ele>36</ele>
        <time>2021-07-29T11:15:16Z</time>
      </trkpt>
      <trkpt lat="47.22445" lon="0.04231">
        <ele>36</ele>
        <time>2021-07-29T11:15:24Z</time>
      </trkpt>
      <trkpt lat="47.22454" lon="0.04221">
        <ele>37</ele>
        <time>2021-07-29T11:15:32Z</time>
      </trkpt>
      <trkpt lat="47.2246" lon="0.04211">
        <ele>37</ele>
        <time>2021-07-29T11:15:39Z</time>
      </trkpt>
      <trkpt lat="47.22467" lon="0.042">
        <ele>37</ele>
        <time>2021-07-29T11:15:46Z</time>
      </trkpt>
      <trkpt lat="47.22473" lon="0.04189">
        <ele>37</ele>
        <time>2021-07-29T11:15:53Z</time>
      </trkpt>
      <trkpt lat="47.22478" lon="0.04176">
        <ele>37</ele>
        <time>2021-07-29T11:16:01Z</time>
      </trkpt>
      <trkpt lat="47.22484" lon="0.04164">
        <ele>37</ele>
        <time>2021-07-29T11:16:08Z</time>
      </trkpt>
      <trkpt lat="47.22489" lon="0.04152">
        <ele>37</ele>
        <time>2021-07-29T11:16:15Z</time>
      </trkpt>
      <trkpt lat="47.22495" lon="0.04142">
        <ele>37</ele>
        <time>2021-07-29T11:16:22Z</time>
      </trkpt>
      <trkpt lat="47.22501" lon="0.04131">
        <ele>37</ele>
        <time>2021-07-29T11:16:35Z</time>
      </trkpt>
      <trkpt lat="47.22506" lon="0.04118">
        <ele>37</ele>
        <time>2021-07-29T11:16:42Z</time>
      </trkpt>
      <trkpt lat="47.22511" lon="0.04107">
        <ele>36</ele>
        <time>2021-07-29T11:16:49Z</time>
      </trkpt>
      <trkpt lat="47.22518" lon="0.04097">
        <ele>36</ele>
        <time>2021-07-29T11:16:56Z</time>
      </trkpt>
      <trkpt lat="47.22526" lon="0.04086">
        <ele>36</ele>
        <time>2021-07-29T11:17:03Z</time>
      </trkpt>
      <trkpt lat="47.22532" lon="0.04076">
        <ele>36</ele>
        <time>2021-07-29T11:17:10Z</time>
      </trkpt>
      <trkpt lat="47.22538" lon="0.04065">
        <ele>36</ele>
        <time>2021-07-29T11:17:17Z</time>
      </trkpt>
      <trkpt lat="47.22546" lon="0.04055">
        <ele>36</ele>
        <time>2021-07-29T11:17:24Z</time>
      </trkpt>
      <trkpt lat="47.22553" lon="0.04044">
        <ele>36</ele>
        <time>2021-07-29T11:17:31Z</time>
      </trkpt>
      <trkpt lat="47.22558" lon="0.04032">
        <ele>36</ele>
        <time>2021-07-29T11:17:39Z</time>
      </trkpt>
      <trkpt lat="47.22561" lon="0.04019">
        <ele>36</ele>
        <time>2021-07-29T11:17:46Z</time>
      </trkpt>
      <trkpt lat="47.22563" lon="0.04004">
        <ele>36</ele>
        <time>2021-07-29T11:17:54Z</time>
      </trkpt>
      <trkpt lat="47.22563" lon="0.04002">
        <ele>35</ele>
        <time>2021-07-29T11:18:33Z</time>
      </trkpt>
      <trkpt lat="47.22557" lon="0.03991">
        <ele>35</ele>
        <time>2021-07-29T11:18:57Z</time>
      </trkpt>
      <trkpt lat="47.22549" lon="0.03982">
        <ele>34</ele>
        <time>2021-07-29T11:19:06Z</time>
      </trkpt>
      <trkpt lat="47.22538" lon="0.03975">
        <ele>34</ele>
        <time>2021-07-29T11:19:17Z</time>
      </trkpt>
      <trkpt lat="47.22529" lon="0.03966">
        <ele>34</ele>
        <time>2021-07-29T11:19:28Z</time>
      </trkpt>
      <trkpt lat="47.22518" lon="0.03952">
        <ele>35</ele>
        <time>2021-07-29T11:19:41Z</time>
      </trkpt>
      <trkpt lat="47.22509" lon="0.03939">
        <ele>35</ele>
        <time>2021-07-29T11:19:50Z</time>
      </trkpt>
      <trkpt lat="47.225" lon="0.03928">
        <ele>35</ele>
        <time>2021-07-29T11:19:59Z</time>
      </trkpt>
      <trkpt lat="47.22493" lon="0.03914">
        <ele>35</ele>
        <time>2021-07-29T11:20:09Z</time>
      </trkpt>
      <trkpt lat="47.22484" lon="0.03903">
        <ele>35</ele>
        <time>2021-07-29T11:20:18Z</time>
      </trkpt>
      <trkpt lat="47.22476" lon="0.03892">
        <ele>35</ele>
        <time>2021-07-29T11:20:27Z</time>
      </trkpt>
      <trkpt lat="47.22468" lon="0.03877">
        <ele>35</ele>
        <time>2021-07-29T11:20:36Z</time>
      </trkpt>
      <trkpt lat="47.22459" lon="0.03864">
        <ele>35</ele>
        <time>2021-07-29T11:20:44Z</time>
      </trkpt>
      <trkpt lat="47.2245" lon="0.0385">
        <ele>35</ele>
        <time>2021-07-29T11:20:53Z</time>
      </trkpt>
      <trkpt lat="47.22443" lon="0.03838">
        <ele>35</ele>
        <time>2021-07-29T11:21:01Z</time>
      </trkpt>
      <trkpt lat="47.22434" lon="0.03824">
        <ele>36</ele>
        <time>2021-07-29T11:21:09Z</time>
      </trkpt>
      <trkpt lat="47.22427" lon="0.03811">
        <ele>36</ele>
        <time>2021-07-29T11:21:17Z</time>
      </trkpt>
      <trkpt lat="47.22424" lon="0.03797">
        <ele>38</ele>
        <time>2021-07-29T11:21:59Z</time>
      </trkpt>
      <trkpt lat="47.22418" lon="0.03789">
        <ele>38</ele>
        <time>2021-07-29T11:22:10Z</time>
      </trkpt>
      <trkpt lat="47.22412" lon="0.03783">
        <ele>37</ele>
        <time>2021-07-29T11:23:47Z</time>
      </trkpt>
      <trkpt lat="47.22409" lon="0.03776">
        <ele>38</ele>
        <time>2021-07-29T11:24:29Z</time>
      </trkpt>
      <trkpt lat="47.22402" lon="0.03767">
        <ele>38</ele>
        <time>2021-07-29T11:24:38Z</time>
      </trkpt>
      <trkpt lat="47.22394" lon="0.03759">
        <ele>38</ele>
        <time>2021-07-29T11:24:49Z</time>
      </trkpt>
      <trkpt lat="47.22388" lon="0.03747">
        <ele>38</ele>
        <time>2021-07-29T11:24:59Z</time>
      </trkpt>
      <trkpt lat="47.22381" lon="0.03737">
        <ele>38</ele>
        <time>2021-07-29T11:25:09Z</time>
      </trkpt>
      <trkpt lat="47.22375" lon="0.03726">
        <ele>38</ele>
        <time>2021-07-29T11:25:19Z</time>
      </trkpt>
      <trkpt lat="47.22368" lon="0.03717">
        <ele>38</ele>
        <time>2021-07-29T11:25:28Z</time>
      </trkpt>
      <trkpt lat="47.22363" lon="0.03705">
        <ele>38</ele>
        <time>2021-07-29T11:25:38Z</time>
      </trkpt>
      <trkpt lat="47.22357" lon="0.03694">
        <ele>38</ele>
        <time>2021-07-29T11:25:48Z</time>
      </trkpt>
      <trkpt lat="47.22353" lon="0.03681">
        <ele>38</ele>
        <time>2021-07-29T11:25:58Z</time>
      </trkpt>
      <trkpt lat="47.22346" lon="0.0367">
        <ele>38</ele>
        <time>2021-07-29T11:26:07Z</time>
      </trkpt>
      <trkpt lat="47.22339" lon="0.03658">
        <ele>38</ele>
        <time>2021-07-29T11:26:18Z</time>
      </trkpt>
      <trkpt lat="47.22332" lon="0.03645">
        <ele>38</ele>
        <time>2021-07-29T11:26:29Z</time>
      </trkpt>
      <trkpt lat="47.22326" lon="0.03631">
        <ele>39</ele>
        <time>2021-07-29T11:26:43Z</time>
      </trkpt>
      <trkpt lat="47.22321" lon="0.03616">
        <ele>39</ele>
        <time>2021-07-29T11:27:22Z</time>
      </trkpt>
      <trkpt lat="47.22315" lon="0.03604">
        <ele>39</ele>
        <time>2021-07-29T11:27:31Z</time>
      </trkpt>
      <trkpt lat="47.22309" lon="0.03594">
        <ele>39</ele>
        <time>2021-07-29T11:27:39Z</time>
      </trkpt>
      <trkpt lat="47.22302" lon="0.03584">
        <ele>39</ele>
        <time>2021-07-29T11:27:53Z</time>
      </trkpt>
      <trkpt lat="47.22299" lon="0.03579">
        <ele>39</ele>
        <time>2021-07-29T11:28:38Z</time>
      </trkpt>
      <trkpt lat="47.22295" lon="0.03571">
        <ele>39</ele>
        <time>2021-07-29T11:29:37Z</time>
      </trkpt>
      <trkpt lat="47.2229" lon="0.03558">
        <ele>39</ele>
        <time>2021-07-29T11:29:44Z</time>
      </trkpt>
      <trkpt lat="47.22287" lon="0.03548">
        <ele>39</ele>
        <time>2021-07-29T11:29:57Z</time>
      </trkpt>
      <trkpt lat="47.22281" lon="0.03537">
        <ele>39</ele>
        <time>2021-07-29T11:30:04Z</time>
      </trkpt>
      <trkpt lat="47.22275" lon="0.03526">
        <ele>39</ele>
        <time>2021-07-29T11:30:11Z</time>
      </trkpt>
      <trkpt lat="47.2227" lon="0.03514">
        <ele>39</ele>
        <time>2021-07-29T11:30:18Z</time>
      </trkpt>
      <trkpt lat="47.22263" lon="0.03502">
        <ele>39</ele>
        <time>2021-07-29T11:30:26Z</time>
      </trkpt>
      <trkpt lat="47.22259" lon="0.03493">
        <ele>39</ele>
        <time>2021-07-29T11:30:41Z</time>
      </trkpt>
      <trkpt lat="47.22259" lon="0.03488">
        <ele>39</ele>
        <time>2021-07-29T11:32:12Z</time>
      </trkpt>
    </trkseg>
  </trk>
</gpx>